sensor_id;sensor_type;location;lat;lon;timestamp;P1;durP1;ratioP1;P2;durP2;ratioP2
38865;SDS011;62686;48.984;8.394;2022-11-20T00:01:22;20.43;;;14.47;;
38865;SDS011;62686;48.984;8.394;2022-11-20T00:03:52;18.80;;;14.60;;
38865;SDS011;62686;48.984;8.394;2022-11-20T00:06:22;20.47;;;14.87;;
38865;SDS011;62686;48.984;8.394;2022-11-20T00:08:51;20.97;;;14.83;;
38865;SDS011;62686;48.984;8.394;2022-11-20T00:11:21;20.50;;;15.07;;
38865;SDS011;62686;48.984;8.394;2022-11-20T00:13:52;19.27;;;14.97;;
38865;SDS011;62686;48.984;8.394;2022-11-20T00:16:23;23.27;;;15.73;;
38865;SDS011;62686;48.984;8.394;2022-11-20T00:18:52;24.67;;;16.20;;
38865;SDS011;62686;48.984;8.394;2022-11-20T00:21:22;21.73;;;15.10;;
38865;SDS011;62686;48.984;8.394;2022-11-20T00:23:51;21.37;;;14.80;;
38865;SDS011;62686;48.984;8.394;2022-11-20T00:26:22;18.93;;;15.00;;
38865;SDS011;62686;48.984;8.394;2022-11-20T00:28:51;18.43;;;14.00;;
38865;SDS011;62686;48.984;8.394;2022-11-20T00:31:21;18.40;;;14.30;;
38865;SDS011;62686;48.984;8.394;2022-11-20T00:33:50;19.03;;;13.87;;
38865;SDS011;62686;48.984;8.394;2022-11-20T00:36:20;23.67;;;14.83;;
38865;SDS011;62686;48.984;8.394;2022-11-20T00:38:51;19.83;;;14.37;;
38865;SDS011;62686;48.984;8.394;2022-11-20T00:41:19;18.27;;;13.00;;
38865;SDS011;62686;48.984;8.394;2022-11-20T00:43:48;19.97;;;14.13;;
38865;SDS011;62686;48.984;8.394;2022-11-20T00:46:17;16.80;;;12.83;;
38865;SDS011;62686;48.984;8.394;2022-11-20T00:48:48;18.17;;;13.70;;
38865;SDS011;62686;48.984;8.394;2022-11-20T00:51:17;18.03;;;13.43;;
38865;SDS011;62686;48.984;8.394;2022-11-20T00:53:47;18.03;;;13.03;;
38865;SDS011;62686;48.984;8.394;2022-11-20T00:56:16;17.53;;;13.67;;
38865;SDS011;62686;48.984;8.394;2022-11-20T00:58:46;16.90;;;13.13;;
38865;SDS011;62686;48.984;8.394;2022-11-20T01:01:16;20.40;;;13.67;;
38865;SDS011;62686;48.984;8.394;2022-11-20T01:03:46;19.27;;;13.77;;
38865;SDS011;62686;48.984;8.394;2022-11-20T01:06:17;20.57;;;14.10;;
38865;SDS011;62686;48.984;8.394;2022-11-20T01:08:47;18.27;;;12.70;;
38865;SDS011;62686;48.984;8.394;2022-11-20T01:11:17;16.27;;;12.13;;
38865;SDS011;62686;48.984;8.394;2022-11-20T01:13:47;18.83;;;13.00;;
38865;SDS011;62686;48.984;8.394;2022-11-20T01:16:18;16.97;;;12.13;;
38865;SDS011;62686;48.984;8.394;2022-11-20T01:18:47;21.10;;;12.40;;
38865;SDS011;62686;48.984;8.394;2022-11-20T01:21:19;19.90;;;13.13;;
38865;SDS011;62686;48.984;8.394;2022-11-20T01:23:48;15.10;;;11.97;;
38865;SDS011;62686;48.984;8.394;2022-11-20T01:26:18;17.63;;;12.43;;
38865;SDS011;62686;48.984;8.394;2022-11-20T01:28:48;15.87;;;12.33;;
38865;SDS011;62686;48.984;8.394;2022-11-20T01:31:18;16.20;;;11.97;;
38865;SDS011;62686;48.984;8.394;2022-11-20T01:33:50;15.27;;;11.90;;
38865;SDS011;62686;48.984;8.394;2022-11-20T01:36:20;16.67;;;12.30;;
38865;SDS011;62686;48.984;8.394;2022-11-20T01:38:50;15.77;;;11.77;;
38865;SDS011;62686;48.984;8.394;2022-11-20T01:41:19;15.70;;;12.47;;
38865;SDS011;62686;48.984;8.394;2022-11-20T01:44:05;14.30;;;11.43;;
38865;SDS011;62686;48.984;8.394;2022-11-20T01:46:33;16.67;;;12.60;;
38865;SDS011;62686;48.984;8.394;2022-11-20T01:49:08;16.03;;;12.23;;
38865;SDS011;62686;48.984;8.394;2022-11-20T01:51:43;14.00;;;10.73;;
38865;SDS011;62686;48.984;8.394;2022-11-20T01:54:16;14.70;;;11.30;;
38865;SDS011;62686;48.984;8.394;2022-11-20T01:56:47;15.10;;;11.30;;
38865;SDS011;62686;48.984;8.394;2022-11-20T01:59:18;16.23;;;12.07;;
38865;SDS011;62686;48.984;8.394;2022-11-20T02:01:48;16.37;;;11.40;;
38865;SDS011;62686;48.984;8.394;2022-11-20T02:04:17;14.90;;;11.13;;
38865;SDS011;62686;48.984;8.394;2022-11-20T02:06:47;16.07;;;11.17;;
38865;SDS011;62686;48.984;8.394;2022-11-20T02:09:17;15.77;;;11.60;;
38865;SDS011;62686;48.984;8.394;2022-11-20T02:11:45;21.93;;;10.90;;
38865;SDS011;62686;48.984;8.394;2022-11-20T02:14:14;16.80;;;11.50;;
38865;SDS011;62686;48.984;8.394;2022-11-20T02:16:43;17.93;;;11.10;;
38865;SDS011;62686;48.984;8.394;2022-11-20T02:19:16;17.53;;;11.53;;
38865;SDS011;62686;48.984;8.394;2022-11-20T02:21:51;15.03;;;11.13;;
38865;SDS011;62686;48.984;8.394;2022-11-20T02:24:28;16.07;;;11.50;;
38865;SDS011;62686;48.984;8.394;2022-11-20T02:26:58;14.87;;;10.83;;
38865;SDS011;62686;48.984;8.394;2022-11-20T02:29:31;19.97;;;11.53;;
38865;SDS011;62686;48.984;8.394;2022-11-20T02:32:03;12.83;;;10.00;;
38865;SDS011;62686;48.984;8.394;2022-11-20T02:34:31;13.30;;;9.90;;
38865;SDS011;62686;48.984;8.394;2022-11-20T02:36:59;13.30;;;10.13;;
38865;SDS011;62686;48.984;8.394;2022-11-20T02:39:29;15.57;;;10.20;;
38865;SDS011;62686;48.984;8.394;2022-11-20T02:41:57;13.60;;;10.73;;
38865;SDS011;62686;48.984;8.394;2022-11-20T02:44:28;11.97;;;9.37;;
38865;SDS011;62686;48.984;8.394;2022-11-20T02:46:56;13.30;;;9.53;;
38865;SDS011;62686;48.984;8.394;2022-11-20T02:49:25;15.33;;;9.20;;
38865;SDS011;62686;48.984;8.394;2022-11-20T02:51:53;12.00;;;9.27;;
38865;SDS011;62686;48.984;8.394;2022-11-20T02:54:21;12.13;;;8.43;;
38865;SDS011;62686;48.984;8.394;2022-11-20T02:56:51;10.30;;;8.23;;
38865;SDS011;62686;48.984;8.394;2022-11-20T02:59:19;19.30;;;8.53;;
38865;SDS011;62686;48.984;8.394;2022-11-20T03:01:47;10.83;;;7.53;;
38865;SDS011;62686;48.984;8.394;2022-11-20T03:04:16;9.33;;;6.87;;
38865;SDS011;62686;48.984;8.394;2022-11-20T03:06:44;10.00;;;6.83;;
38865;SDS011;62686;48.984;8.394;2022-11-20T03:09:12;7.73;;;6.90;;
38865;SDS011;62686;48.984;8.394;2022-11-20T03:11:41;8.77;;;6.70;;
38865;SDS011;62686;48.984;8.394;2022-11-20T03:14:11;9.23;;;6.50;;
38865;SDS011;62686;48.984;8.394;2022-11-20T03:16:40;7.87;;;6.70;;
38865;SDS011;62686;48.984;8.394;2022-11-20T03:19:08;9.37;;;6.77;;
38865;SDS011;62686;48.984;8.394;2022-11-20T03:21:36;11.83;;;7.10;;
38865;SDS011;62686;48.984;8.394;2022-11-20T03:24:05;16.70;;;6.87;;
38865;SDS011;62686;48.984;8.394;2022-11-20T03:26:33;10.90;;;6.00;;
38865;SDS011;62686;48.984;8.394;2022-11-20T03:29:02;7.57;;;6.00;;
38865;SDS011;62686;48.984;8.394;2022-11-20T03:31:33;9.63;;;5.80;;
38865;SDS011;62686;48.984;8.394;2022-11-20T03:34:03;10.30;;;5.90;;
38865;SDS011;62686;48.984;8.394;2022-11-20T03:36:32;7.57;;;5.63;;
38865;SDS011;62686;48.984;8.394;2022-11-20T03:39:00;8.63;;;5.90;;
38865;SDS011;62686;48.984;8.394;2022-11-20T03:41:29;7.40;;;5.57;;
38865;SDS011;62686;48.984;8.394;2022-11-20T03:43:59;5.97;;;5.37;;
38865;SDS011;62686;48.984;8.394;2022-11-20T03:46:28;6.20;;;5.37;;
38865;SDS011;62686;48.984;8.394;2022-11-20T03:48:58;7.60;;;5.30;;
38865;SDS011;62686;48.984;8.394;2022-11-20T03:51:27;8.27;;;5.40;;
38865;SDS011;62686;48.984;8.394;2022-11-20T03:53:57;6.40;;;5.13;;
38865;SDS011;62686;48.984;8.394;2022-11-20T03:56:27;8.00;;;5.30;;
38865;SDS011;62686;48.984;8.394;2022-11-20T03:58:56;8.97;;;5.33;;
38865;SDS011;62686;48.984;8.394;2022-11-20T04:01:25;6.97;;;4.70;;
38865;SDS011;62686;48.984;8.394;2022-11-20T04:03:55;6.73;;;5.13;;
38865;SDS011;62686;48.984;8.394;2022-11-20T04:06:26;6.83;;;5.27;;
38865;SDS011;62686;48.984;8.394;2022-11-20T04:08:55;8.63;;;5.47;;
38865;SDS011;62686;48.984;8.394;2022-11-20T04:11:25;6.73;;;5.03;;
38865;SDS011;62686;48.984;8.394;2022-11-20T04:13:55;6.67;;;5.43;;
38865;SDS011;62686;48.984;8.394;2022-11-20T04:16:24;8.77;;;4.73;;
38865;SDS011;62686;48.984;8.394;2022-11-20T04:18:54;5.93;;;4.97;;
38865;SDS011;62686;48.984;8.394;2022-11-20T04:21:23;6.83;;;4.43;;
38865;SDS011;62686;48.984;8.394;2022-11-20T04:23:54;6.67;;;4.43;;
38865;SDS011;62686;48.984;8.394;2022-11-20T04:26:23;6.70;;;4.47;;
38865;SDS011;62686;48.984;8.394;2022-11-20T04:28:52;6.73;;;4.27;;
38865;SDS011;62686;48.984;8.394;2022-11-20T04:31:20;8.30;;;4.77;;
38865;SDS011;62686;48.984;8.394;2022-11-20T04:33:50;7.17;;;5.10;;
38865;SDS011;62686;48.984;8.394;2022-11-20T04:36:19;8.07;;;4.87;;
38865;SDS011;62686;48.984;8.394;2022-11-20T04:38:51;8.73;;;4.90;;
38865;SDS011;62686;48.984;8.394;2022-11-20T04:41:22;7.43;;;4.93;;
38865;SDS011;62686;48.984;8.394;2022-11-20T04:43:52;6.00;;;4.60;;
38865;SDS011;62686;48.984;8.394;2022-11-20T04:46:25;5.47;;;4.67;;
38865;SDS011;62686;48.984;8.394;2022-11-20T04:48:54;6.87;;;5.37;;
38865;SDS011;62686;48.984;8.394;2022-11-20T04:51:23;6.33;;;5.00;;
38865;SDS011;62686;48.984;8.394;2022-11-20T04:53:53;6.17;;;4.63;;
38865;SDS011;62686;48.984;8.394;2022-11-20T04:56:21;6.67;;;5.00;;
38865;SDS011;62686;48.984;8.394;2022-11-20T04:58:49;5.90;;;4.53;;
38865;SDS011;62686;48.984;8.394;2022-11-20T05:01:19;8.73;;;4.83;;
38865;SDS011;62686;48.984;8.394;2022-11-20T05:03:49;5.87;;;4.77;;
38865;SDS011;62686;48.984;8.394;2022-11-20T05:06:18;7.67;;;5.00;;
38865;SDS011;62686;48.984;8.394;2022-11-20T05:08:47;5.30;;;4.23;;
38865;SDS011;62686;48.984;8.394;2022-11-20T05:11:18;5.37;;;4.03;;
38865;SDS011;62686;48.984;8.394;2022-11-20T05:13:47;6.03;;;4.83;;
38865;SDS011;62686;48.984;8.394;2022-11-20T05:16:16;5.87;;;4.63;;
38865;SDS011;62686;48.984;8.394;2022-11-20T05:18:46;6.27;;;4.67;;
38865;SDS011;62686;48.984;8.394;2022-11-20T05:21:14;7.20;;;5.00;;
38865;SDS011;62686;48.984;8.394;2022-11-20T05:23:44;6.53;;;4.83;;
38865;SDS011;62686;48.984;8.394;2022-11-20T05:26:13;5.77;;;4.83;;
38865;SDS011;62686;48.984;8.394;2022-11-20T05:28:44;6.60;;;4.60;;
38865;SDS011;62686;48.984;8.394;2022-11-20T05:31:13;7.90;;;4.80;;
38865;SDS011;62686;48.984;8.394;2022-11-20T05:33:45;10.17;;;5.43;;
38865;SDS011;62686;48.984;8.394;2022-11-20T05:36:14;7.83;;;5.13;;
38865;SDS011;62686;48.984;8.394;2022-11-20T05:38:42;4.73;;;3.77;;
38865;SDS011;62686;48.984;8.394;2022-11-20T05:41:13;5.40;;;3.80;;
38865;SDS011;62686;48.984;8.394;2022-11-20T05:43:45;5.83;;;4.03;;
38865;SDS011;62686;48.984;8.394;2022-11-20T05:46:14;6.37;;;3.90;;
38865;SDS011;62686;48.984;8.394;2022-11-20T05:48:45;7.13;;;3.90;;
38865;SDS011;62686;48.984;8.394;2022-11-20T05:51:14;4.50;;;3.80;;
38865;SDS011;62686;48.984;8.394;2022-11-20T05:53:44;6.00;;;3.70;;
38865;SDS011;62686;48.984;8.394;2022-11-20T05:56:14;4.40;;;3.40;;
38865;SDS011;62686;48.984;8.394;2022-11-20T05:58:44;4.77;;;3.27;;
38865;SDS011;62686;48.984;8.394;2022-11-20T06:01:13;5.40;;;3.60;;
38865;SDS011;62686;48.984;8.394;2022-11-20T06:03:43;4.00;;;2.93;;
38865;SDS011;62686;48.984;8.394;2022-11-20T06:06:13;4.20;;;3.80;;
38865;SDS011;62686;48.984;8.394;2022-11-20T06:08:42;6.00;;;3.10;;
38865;SDS011;62686;48.984;8.394;2022-11-20T06:11:11;4.50;;;3.63;;
38865;SDS011;62686;48.984;8.394;2022-11-20T06:13:40;3.37;;;2.97;;
38865;SDS011;62686;48.984;8.394;2022-11-20T06:16:10;6.77;;;3.40;;
38865;SDS011;62686;48.984;8.394;2022-11-20T06:18:39;4.30;;;2.70;;
38865;SDS011;62686;48.984;8.394;2022-11-20T06:21:08;3.60;;;2.97;;
38865;SDS011;62686;48.984;8.394;2022-11-20T06:23:38;3.73;;;2.97;;
38865;SDS011;62686;48.984;8.394;2022-11-20T06:26:07;4.23;;;2.73;;
38865;SDS011;62686;48.984;8.394;2022-11-20T06:28:37;4.40;;;2.77;;
38865;SDS011;62686;48.984;8.394;2022-11-20T06:31:06;4.37;;;3.23;;
38865;SDS011;62686;48.984;8.394;2022-11-20T06:33:36;4.47;;;2.93;;
38865;SDS011;62686;48.984;8.394;2022-11-20T06:36:04;3.77;;;2.37;;
38865;SDS011;62686;48.984;8.394;2022-11-20T06:38:35;3.67;;;3.00;;
38865;SDS011;62686;48.984;8.394;2022-11-20T06:41:04;3.57;;;2.60;;
38865;SDS011;62686;48.984;8.394;2022-11-20T06:43:32;4.20;;;2.60;;
38865;SDS011;62686;48.984;8.394;2022-11-20T06:46:00;7.80;;;3.33;;
38865;SDS011;62686;48.984;8.394;2022-11-20T06:48:29;5.47;;;4.10;;
38865;SDS011;62686;48.984;8.394;2022-11-20T06:50:58;4.63;;;3.00;;
38865;SDS011;62686;48.984;8.394;2022-11-20T06:53:26;4.97;;;2.60;;
38865;SDS011;62686;48.984;8.394;2022-11-20T06:55:55;4.77;;;3.20;;
38865;SDS011;62686;48.984;8.394;2022-11-20T06:58:26;3.73;;;2.90;;
38865;SDS011;62686;48.984;8.394;2022-11-20T07:00:57;4.20;;;3.00;;
38865;SDS011;62686;48.984;8.394;2022-11-20T07:03:26;3.63;;;2.87;;
38865;SDS011;62686;48.984;8.394;2022-11-20T07:05:54;5.63;;;2.90;;
38865;SDS011;62686;48.984;8.394;2022-11-20T07:08:24;5.23;;;2.70;;
38865;SDS011;62686;48.984;8.394;2022-11-20T07:10:56;3.63;;;2.60;;
38865;SDS011;62686;48.984;8.394;2022-11-20T07:13:25;5.13;;;3.20;;
38865;SDS011;62686;48.984;8.394;2022-11-20T07:15:54;3.87;;;3.10;;
38865;SDS011;62686;48.984;8.394;2022-11-20T07:18:22;4.53;;;3.43;;
38865;SDS011;62686;48.984;8.394;2022-11-20T07:20:50;5.00;;;3.20;;
38865;SDS011;62686;48.984;8.394;2022-11-20T07:23:18;3.10;;;2.80;;
38865;SDS011;62686;48.984;8.394;2022-11-20T07:25:48;5.77;;;3.47;;
38865;SDS011;62686;48.984;8.394;2022-11-20T07:28:16;5.27;;;3.10;;
38865;SDS011;62686;48.984;8.394;2022-11-20T07:30:48;3.20;;;2.90;;
38865;SDS011;62686;48.984;8.394;2022-11-20T07:33:18;7.67;;;3.30;;
38865;SDS011;62686;48.984;8.394;2022-11-20T07:35:47;4.93;;;2.80;;
38865;SDS011;62686;48.984;8.394;2022-11-20T07:38:15;3.60;;;2.60;;
38865;SDS011;62686;48.984;8.394;2022-11-20T07:40:43;3.43;;;2.90;;
38865;SDS011;62686;48.984;8.394;2022-11-20T07:43:13;5.20;;;3.10;;
38865;SDS011;62686;48.984;8.394;2022-11-20T07:45:41;8.87;;;3.90;;
38865;SDS011;62686;48.984;8.394;2022-11-20T07:48:09;5.30;;;3.40;;
38865;SDS011;62686;48.984;8.394;2022-11-20T07:50:37;5.33;;;3.63;;
38865;SDS011;62686;48.984;8.394;2022-11-20T07:53:05;6.23;;;3.83;;
38865;SDS011;62686;48.984;8.394;2022-11-20T07:55:34;6.33;;;3.60;;
38865;SDS011;62686;48.984;8.394;2022-11-20T07:58:02;5.57;;;3.30;;
38865;SDS011;62686;48.984;8.394;2022-11-20T08:00:31;5.50;;;3.43;;
38865;SDS011;62686;48.984;8.394;2022-11-20T08:03:02;4.40;;;3.40;;
38865;SDS011;62686;48.984;8.394;2022-11-20T08:05:31;8.63;;;4.10;;
38865;SDS011;62686;48.984;8.394;2022-11-20T08:07:59;5.10;;;3.40;;
38865;SDS011;62686;48.984;8.394;2022-11-20T08:10:27;4.77;;;3.33;;
38865;SDS011;62686;48.984;8.394;2022-11-20T08:12:55;3.90;;;3.30;;
38865;SDS011;62686;48.984;8.394;2022-11-20T08:15:46;5.40;;;3.80;;
38865;SDS011;62686;48.984;8.394;2022-11-20T08:18:16;3.80;;;3.43;;
38865;SDS011;62686;48.984;8.394;2022-11-20T08:21:03;5.47;;;3.87;;
38865;SDS011;62686;48.984;8.394;2022-11-20T08:23:51;5.43;;;3.87;;
38865;SDS011;62686;48.984;8.394;2022-11-20T08:26:20;5.70;;;3.73;;
38865;SDS011;62686;48.984;8.394;2022-11-20T08:28:52;4.07;;;3.30;;
38865;SDS011;62686;48.984;8.394;2022-11-20T08:31:22;7.30;;;3.70;;
38865;SDS011;62686;48.984;8.394;2022-11-20T08:33:51;3.90;;;3.33;;
38865;SDS011;62686;48.984;8.394;2022-11-20T08:36:20;4.57;;;3.63;;
38865;SDS011;62686;48.984;8.394;2022-11-20T08:38:49;3.63;;;3.30;;
38865;SDS011;62686;48.984;8.394;2022-11-20T08:41:19;4.90;;;3.50;;
38865;SDS011;62686;48.984;8.394;2022-11-20T08:43:55;4.67;;;3.30;;
38865;SDS011;62686;48.984;8.394;2022-11-20T08:46:26;6.27;;;3.93;;
38865;SDS011;62686;48.984;8.394;2022-11-20T08:48:55;5.27;;;3.40;;
38865;SDS011;62686;48.984;8.394;2022-11-20T08:51:23;5.00;;;3.10;;
38865;SDS011;62686;48.984;8.394;2022-11-20T08:53:52;7.73;;;3.70;;
38865;SDS011;62686;48.984;8.394;2022-11-20T08:56:20;4.37;;;3.37;;
38865;SDS011;62686;48.984;8.394;2022-11-20T08:58:49;8.30;;;6.77;;
38865;SDS011;62686;48.984;8.394;2022-11-20T09:01:50;6.27;;;3.40;;
38865;SDS011;62686;48.984;8.394;2022-11-20T09:04:18;4.83;;;3.27;;
38865;SDS011;62686;48.984;8.394;2022-11-20T09:06:47;6.43;;;3.43;;
38865;SDS011;62686;48.984;8.394;2022-11-20T09:09:17;5.63;;;3.60;;
38865;SDS011;62686;48.984;8.394;2022-11-20T09:11:48;3.90;;;3.20;;
38865;SDS011;62686;48.984;8.394;2022-11-20T09:14:17;4.43;;;3.63;;
38865;SDS011;62686;48.984;8.394;2022-11-20T09:16:45;5.10;;;3.70;;
38865;SDS011;62686;48.984;8.394;2022-11-20T09:19:19;7.27;;;3.83;;
38865;SDS011;62686;48.984;8.394;2022-11-20T09:22:03;7.33;;;4.20;;
38865;SDS011;62686;48.984;8.394;2022-11-20T09:24:31;6.20;;;3.60;;
38865;SDS011;62686;48.984;8.394;2022-11-20T09:27:01;5.33;;;4.03;;
38865;SDS011;62686;48.984;8.394;2022-11-20T09:29:30;4.97;;;3.90;;
38865;SDS011;62686;48.984;8.394;2022-11-20T09:31:58;4.57;;;3.20;;
38865;SDS011;62686;48.984;8.394;2022-11-20T09:34:28;5.03;;;3.90;;
38865;SDS011;62686;48.984;8.394;2022-11-20T09:36:57;4.90;;;3.90;;
38865;SDS011;62686;48.984;8.394;2022-11-20T09:39:25;4.90;;;3.70;;
38865;SDS011;62686;48.984;8.394;2022-11-20T09:42:00;5.57;;;3.90;;
38865;SDS011;62686;48.984;8.394;2022-11-20T09:44:49;4.13;;;3.73;;
38865;SDS011;62686;48.984;8.394;2022-11-20T09:47:32;6.80;;;4.07;;
38865;SDS011;62686;48.984;8.394;2022-11-20T09:50:17;5.40;;;3.93;;
38865;SDS011;62686;48.984;8.394;2022-11-20T09:53:15;7.60;;;4.93;;
38865;SDS011;62686;48.984;8.394;2022-11-20T09:55:52;5.30;;;4.80;;
38865;SDS011;62686;48.984;8.394;2022-11-20T09:58:24;7.10;;;4.57;;
38865;SDS011;62686;48.984;8.394;2022-11-20T10:00:59;9.53;;;4.67;;
38865;SDS011;62686;48.984;8.394;2022-11-20T10:03:36;6.73;;;5.40;;
38865;SDS011;62686;48.984;8.394;2022-11-20T10:06:13;7.43;;;4.97;;
38865;SDS011;62686;48.984;8.394;2022-11-20T10:08:48;8.10;;;5.20;;
38865;SDS011;62686;48.984;8.394;2022-11-20T10:11:27;7.80;;;4.90;;
38865;SDS011;62686;48.984;8.394;2022-11-20T10:14:08;6.47;;;4.80;;
38865;SDS011;62686;48.984;8.394;2022-11-20T10:16:47;4.93;;;4.43;;
38865;SDS011;62686;48.984;8.394;2022-11-20T10:19:29;9.83;;;5.20;;
38865;SDS011;62686;48.984;8.394;2022-11-20T10:22:12;8.10;;;5.90;;
38865;SDS011;62686;48.984;8.394;2022-11-20T10:24:56;6.50;;;4.67;;
38865;SDS011;62686;48.984;8.394;2022-11-20T10:30:26;9.67;;;4.20;;
38865;SDS011;62686;48.984;8.394;2022-11-20T10:32:58;7.47;;;4.90;;
38865;SDS011;62686;48.984;8.394;2022-11-20T10:35:34;5.00;;;4.07;;
38865;SDS011;62686;48.984;8.394;2022-11-20T10:38:07;5.60;;;3.27;;
38865;SDS011;62686;48.984;8.394;2022-11-20T10:40:44;4.10;;;3.70;;
38865;SDS011;62686;48.984;8.394;2022-11-20T10:43:15;4.17;;;3.43;;
38865;SDS011;62686;48.984;8.394;2022-11-20T10:45:50;4.37;;;3.43;;
38865;SDS011;62686;48.984;8.394;2022-11-20T10:48:24;5.10;;;3.13;;
38865;SDS011;62686;48.984;8.394;2022-11-20T10:51:03;5.43;;;3.57;;
38865;SDS011;62686;48.984;8.394;2022-11-20T10:53:45;5.23;;;2.70;;
38865;SDS011;62686;48.984;8.394;2022-11-20T10:56:27;5.50;;;3.00;;
38865;SDS011;62686;48.984;8.394;2022-11-20T11:02:19;5.00;;;2.90;;
38865;SDS011;62686;48.984;8.394;2022-11-20T11:04:49;8.10;;;3.27;;
38865;SDS011;62686;48.984;8.394;2022-11-20T11:07:20;3.57;;;2.50;;
38865;SDS011;62686;48.984;8.394;2022-11-20T11:09:53;3.97;;;2.47;;
38865;SDS011;62686;48.984;8.394;2022-11-20T11:12:24;4.13;;;2.40;;
38865;SDS011;62686;48.984;8.394;2022-11-20T11:14:55;3.73;;;2.33;;
38865;SDS011;62686;48.984;8.394;2022-11-20T11:17:25;4.33;;;2.70;;
38865;SDS011;62686;48.984;8.394;2022-11-20T11:19:58;5.43;;;2.80;;
38865;SDS011;62686;48.984;8.394;2022-11-20T11:22:28;6.10;;;2.33;;
38865;SDS011;62686;48.984;8.394;2022-11-20T11:24:57;3.10;;;2.13;;
38865;SDS011;62686;48.984;8.394;2022-11-20T11:27:27;6.03;;;2.70;;
38865;SDS011;62686;48.984;8.394;2022-11-20T11:30:03;5.23;;;2.53;;
38865;SDS011;62686;48.984;8.394;2022-11-20T11:32:40;3.47;;;2.30;;
38865;SDS011;62686;48.984;8.394;2022-11-20T11:35:18;4.33;;;2.13;;
38865;SDS011;62686;48.984;8.394;2022-11-20T11:37:52;3.87;;;1.90;;
38865;SDS011;62686;48.984;8.394;2022-11-20T11:40:22;2.60;;;1.83;;
38865;SDS011;62686;48.984;8.394;2022-11-20T11:42:56;3.97;;;1.70;;
38865;SDS011;62686;48.984;8.394;2022-11-20T11:45:26;2.42;;;1.80;;
38865;SDS011;62686;48.984;8.394;2022-11-20T11:47:54;5.35;;;2.17;;
38865;SDS011;62686;48.984;8.394;2022-11-20T11:50:25;3.67;;;1.60;;
38865;SDS011;62686;48.984;8.394;2022-11-20T11:52:56;3.83;;;1.83;;
38865;SDS011;62686;48.984;8.394;2022-11-20T11:55:34;6.15;;;1.80;;
38865;SDS011;62686;48.984;8.394;2022-11-20T11:58:14;3.17;;;1.77;;
38865;SDS011;62686;48.984;8.394;2022-11-20T12:00:54;6.55;;;1.90;;
38865;SDS011;62686;48.984;8.394;2022-11-20T12:03:27;2.93;;;1.50;;
38865;SDS011;62686;48.984;8.394;2022-11-20T12:06:03;3.57;;;1.70;;
38865;SDS011;62686;48.984;8.394;2022-11-20T12:08:40;3.90;;;1.60;;
38865;SDS011;62686;48.984;8.394;2022-11-20T12:11:15;6.30;;;1.63;;
38865;SDS011;62686;48.984;8.394;2022-11-20T12:13:50;5.53;;;1.83;;
38865;SDS011;62686;48.984;8.394;2022-11-20T12:16:23;4.37;;;1.80;;
38865;SDS011;62686;48.984;8.394;2022-11-20T12:18:52;6.53;;;2.30;;
38865;SDS011;62686;48.984;8.394;2022-11-20T12:21:24;2.70;;;1.30;;
38865;SDS011;62686;48.984;8.394;2022-11-20T12:24:08;4.97;;;1.70;;
38865;SDS011;62686;48.984;8.394;2022-11-20T12:26:54;3.63;;;1.40;;
38865;SDS011;62686;48.984;8.394;2022-11-20T12:29:38;3.57;;;1.47;;
38865;SDS011;62686;48.984;8.394;2022-11-20T12:32:32;6.53;;;2.03;;
38865;SDS011;62686;48.984;8.394;2022-11-20T12:35:16;6.30;;;2.10;;
38865;SDS011;62686;48.984;8.394;2022-11-20T12:38:04;9.43;;;2.40;;
38865;SDS011;62686;48.984;8.394;2022-11-20T12:40:49;6.23;;;1.60;;
38865;SDS011;62686;48.984;8.394;2022-11-20T12:43:27;4.53;;;1.57;;
38865;SDS011;62686;48.984;8.394;2022-11-20T12:46:22;2.03;;;1.13;;
38865;SDS011;62686;48.984;8.394;2022-11-20T12:49:02;4.10;;;1.40;;
38865;SDS011;62686;48.984;8.394;2022-11-20T12:51:47;5.53;;;2.07;;
38865;SDS011;62686;48.984;8.394;2022-11-20T12:54:33;2.20;;;1.30;;
38865;SDS011;62686;48.984;8.394;2022-11-20T12:57:15;3.57;;;1.20;;
38865;SDS011;62686;48.984;8.394;2022-11-20T12:59:56;6.83;;;1.30;;
38865;SDS011;62686;48.984;8.394;2022-11-20T13:02:37;4.27;;;2.40;;
38865;SDS011;62686;48.984;8.394;2022-11-20T13:05:24;7.13;;;1.37;;
38865;SDS011;62686;48.984;8.394;2022-11-20T13:07:58;5.50;;;1.77;;
38865;SDS011;62686;48.984;8.394;2022-11-20T13:10:31;4.80;;;1.57;;
38865;SDS011;62686;48.984;8.394;2022-11-20T13:13:05;3.43;;;1.17;;
38865;SDS011;62686;48.984;8.394;2022-11-20T13:15:44;4.87;;;1.30;;
38865;SDS011;62686;48.984;8.394;2022-11-20T13:18:21;2.00;;;1.27;;
38865;SDS011;62686;48.984;8.394;2022-11-20T13:20:50;2.10;;;1.10;;
38865;SDS011;62686;48.984;8.394;2022-11-20T13:23:24;2.23;;;1.10;;
38865;SDS011;62686;48.984;8.394;2022-11-20T13:28:44;3.67;;;1.13;;
38865;SDS011;62686;48.984;8.394;2022-11-20T13:31:24;2.30;;;1.03;;
38865;SDS011;62686;48.984;8.394;2022-11-20T13:34:00;3.13;;;1.03;;
38865;SDS011;62686;48.984;8.394;2022-11-20T13:36:31;4.30;;;1.10;;
38865;SDS011;62686;48.984;8.394;2022-11-20T13:39:01;2.33;;;1.30;;
38865;SDS011;62686;48.984;8.394;2022-11-20T13:41:30;2.77;;;1.20;;
38865;SDS011;62686;48.984;8.394;2022-11-20T13:44:06;3.53;;;1.33;;
38865;SDS011;62686;48.984;8.394;2022-11-20T13:46:43;3.17;;;1.17;;
38865;SDS011;62686;48.984;8.394;2022-11-20T13:49:18;4.70;;;1.13;;
38865;SDS011;62686;48.984;8.394;2022-11-20T13:51:54;11.17;;;1.33;;
38865;SDS011;62686;48.984;8.394;2022-11-20T13:54:41;3.50;;;1.47;;
38865;SDS011;62686;48.984;8.394;2022-11-20T13:57:31;4.50;;;1.27;;
38865;SDS011;62686;48.984;8.394;2022-11-20T14:00:16;5.43;;;1.37;;
38865;SDS011;62686;48.984;8.394;2022-11-20T14:02:58;4.27;;;1.43;;
38865;SDS011;62686;48.984;8.394;2022-11-20T14:05:39;3.67;;;1.30;;
38865;SDS011;62686;48.984;8.394;2022-11-20T14:08:19;1.23;;;1.10;;
38865;SDS011;62686;48.984;8.394;2022-11-20T14:11:02;2.63;;;1.60;;
38865;SDS011;62686;48.984;8.394;2022-11-20T14:13:31;3.90;;;1.30;;
38865;SDS011;62686;48.984;8.394;2022-11-20T14:15:59;4.73;;;1.20;;
38865;SDS011;62686;48.984;8.394;2022-11-20T14:18:28;2.90;;;1.40;;
38865;SDS011;62686;48.984;8.394;2022-11-20T14:20:59;2.63;;;1.07;;
38865;SDS011;62686;48.984;8.394;2022-11-20T14:23:28;5.07;;;1.43;;
38865;SDS011;62686;48.984;8.394;2022-11-20T14:25:57;4.00;;;1.43;;
38865;SDS011;62686;48.984;8.394;2022-11-20T14:28:26;4.07;;;1.40;;
38865;SDS011;62686;48.984;8.394;2022-11-20T14:30:56;3.53;;;1.07;;
38865;SDS011;62686;48.984;8.394;2022-11-20T14:33:25;3.03;;;1.33;;
38865;SDS011;62686;48.984;8.394;2022-11-20T14:35:54;7.10;;;1.50;;
38865;SDS011;62686;48.984;8.394;2022-11-20T14:38:27;4.47;;;1.10;;
38865;SDS011;62686;48.984;8.394;2022-11-20T14:41:05;1.47;;;1.03;;
38865;SDS011;62686;48.984;8.394;2022-11-20T14:43:34;3.70;;;1.40;;
38865;SDS011;62686;48.984;8.394;2022-11-20T14:46:07;3.23;;;0.90;;
38865;SDS011;62686;48.984;8.394;2022-11-20T14:48:38;3.10;;;1.10;;
38865;SDS011;62686;48.984;8.394;2022-11-20T14:51:09;3.17;;;1.50;;
38865;SDS011;62686;48.984;8.394;2022-11-20T14:53:39;1.83;;;1.10;;
38865;SDS011;62686;48.984;8.394;2022-11-20T14:56:08;3.67;;;1.20;;
38865;SDS011;62686;48.984;8.394;2022-11-20T14:58:36;2.60;;;1.10;;
38865;SDS011;62686;48.984;8.394;2022-11-20T15:01:05;7.90;;;1.43;;
38865;SDS011;62686;48.984;8.394;2022-11-20T15:03:35;1.80;;;0.90;;
38865;SDS011;62686;48.984;8.394;2022-11-20T15:06:05;1.70;;;1.00;;
38865;SDS011;62686;48.984;8.394;2022-11-20T15:08:34;4.27;;;1.60;;
38865;SDS011;62686;48.984;8.394;2022-11-20T15:11:14;3.83;;;1.67;;
38865;SDS011;62686;48.984;8.394;2022-11-20T15:13:45;3.00;;;1.27;;
38865;SDS011;62686;48.984;8.394;2022-11-20T15:16:18;4.97;;;1.20;;
38865;SDS011;62686;48.984;8.394;2022-11-20T15:18:47;3.00;;;1.20;;
38865;SDS011;62686;48.984;8.394;2022-11-20T15:21:16;5.60;;;1.20;;